createdAt,value
2018-05-18T00:01:13.300Z,95247.80
2018-05-18T00:03:41.710Z,95249.30
2018-05-18T00:06:09.870Z,95251.17
2018-05-18T00:08:38.145Z,95255.31
2018-05-18T00:11:06.402Z,95248.58
2018-05-18T00:13:34.654Z,95249.59
2018-05-18T00:16:02.932Z,95249.88
2018-05-18T00:18:31.216Z,95249.36
2018-05-18T00:20:59.463Z,95250.08
2018-05-18T00:23:27.727Z,95251.19
2018-05-18T00:25:55.983Z,95256.06
2018-05-18T00:28:24.260Z,95254.02
2018-05-18T00:30:52.556Z,95247.64
2018-05-18T00:33:20.827Z,95250.92
2018-05-18T00:35:49.107Z,95253.25
2018-05-18T00:38:17.380Z,95251.50
2018-05-18T00:40:45.663Z,95249.80
2018-05-18T00:43:13.936Z,95243.73
2018-05-18T00:45:42.198Z,95240.56
2018-05-18T00:48:10.459Z,95238.11
2018-05-18T00:50:38.711Z,95233.98
2018-05-18T00:53:06.977Z,95236.98
2018-05-18T00:55:41.031Z,95241.86
2018-05-18T00:58:09.327Z,95238.37
2018-05-18T01:00:37.603Z,95235.95
2018-05-18T01:03:05.869Z,95232.76
2018-05-18T01:05:34.130Z,95234.52
2018-05-18T01:08:02.386Z,95236.05
2018-05-18T01:10:30.648Z,95244.62
2018-05-18T01:12:58.922Z,95236.00
2018-05-18T01:15:27.175Z,95235.20
2018-05-18T01:17:55.447Z,95237.53
2018-05-18T01:20:23.699Z,95236.69
2018-05-18T01:22:51.965Z,95239.66
2018-05-18T01:25:20.240Z,95233.16
2018-05-18T01:27:48.507Z,95234.48
2018-05-18T01:30:16.767Z,95229.25
2018-05-18T01:32:45.035Z,95238.33
2018-05-18T01:35:13.363Z,95237.02
2018-05-18T01:37:41.627Z,95233.48
2018-05-18T01:40:09.883Z,95234.63
2018-05-18T01:42:38.202Z,95231.01
2018-05-18T01:45:06.464Z,95235.48
2018-05-18T01:47:34.730Z,95229.82
2018-05-18T01:50:03.000Z,95227.30
2018-05-18T01:52:31.267Z,95229.31
2018-05-18T01:55:00.291Z,95229.58
2018-05-18T01:57:28.559Z,95229.58
2018-05-18T01:59:56.830Z,95232.30
2018-05-18T02:02:25.089Z,95233.90
2018-05-18T02:04:53.351Z,95235.98
2018-05-18T02:07:21.611Z,95239.33
2018-05-18T02:09:50.182Z,95236.04
2018-05-18T02:12:18.436Z,95242.30
2018-05-18T02:14:46.705Z,95238.14
2018-05-18T02:17:14.967Z,95230.38
2018-05-18T02:19:43.243Z,95234.20
2018-05-18T02:22:11.494Z,95245.27
2018-05-18T02:24:39.760Z,95241.29
2018-05-18T02:27:08.015Z,95238.02
2018-05-18T02:29:36.292Z,95236.48
2018-05-18T02:32:04.564Z,95241.58
2018-05-18T02:34:32.983Z,95239.73
2018-05-18T02:37:01.222Z,95235.23
2018-05-18T02:39:29.479Z,95229.58
2018-05-18T02:41:57.754Z,95241.80
2018-05-18T02:44:26.019Z,95235.80
2018-05-18T02:46:54.270Z,95235.21
2018-05-18T02:49:22.531Z,95243.04
2018-05-18T02:51:50.786Z,95235.98
2018-05-18T02:54:19.099Z,95227.98
2018-05-18T02:56:48.087Z,95238.95
2018-05-18T02:59:16.373Z,95237.55
2018-05-18T03:01:44.629Z,95241.92
2018-05-18T03:04:12.888Z,95239.86
2018-05-18T03:06:41.139Z,95246.50
2018-05-18T03:09:09.410Z,95239.30
2018-05-18T03:11:37.680Z,95239.45
2018-05-18T03:14:05.943Z,95242.80
2018-05-18T03:16:34.192Z,95249.64
2018-05-18T03:19:02.459Z,95251.92
2018-05-18T03:21:30.710Z,95252.16
2018-05-18T03:23:58.978Z,95254.52
2018-05-18T03:26:27.339Z,95247.98
2018-05-18T03:28:55.598Z,95245.77
2018-05-18T03:31:23.854Z,95245.72
2018-05-18T03:33:52.118Z,95248.23
2018-05-18T03:36:21.134Z,95245.09
2018-05-18T03:38:49.389Z,95246.28
2018-05-18T03:41:17.651Z,95242.46
2018-05-18T03:43:45.911Z,95245.56
2018-05-18T03:46:14.175Z,95251.47
2018-05-18T03:48:42.519Z,95251.39
2018-05-18T03:51:10.715Z,95252.22
2018-05-18T03:53:38.991Z,95251.62
2018-05-18T03:56:07.259Z,95250.03
2018-05-18T03:58:36.223Z,95242.83
2018-05-18T04:01:04.490Z,95242.12
2018-05-18T04:03:50.324Z,95243.28
2018-05-18T04:06:36.198Z,95254.39
2018-05-18T04:09:04.458Z,95259.02
2018-05-18T04:11:33.423Z,95267.32
2018-05-18T04:14:01.679Z,95266.27
2018-05-18T04:16:29.957Z,95265.86
2018-05-18T04:18:58.303Z,95265.64
2018-05-18T04:21:26.580Z,95273.52
2018-05-18T04:23:54.831Z,95268.11
2018-05-18T04:26:23.112Z,95276.98
2018-05-18T04:28:51.359Z,95273.36
2018-05-18T04:31:19.632Z,95269.17
2018-05-18T04:33:47.887Z,95264.33
2018-05-18T04:36:16.155Z,95264.07
2018-05-18T04:38:44.515Z,95263.96
2018-05-18T04:41:12.768Z,95268.17
2018-05-18T04:43:41.026Z,95264.20
2018-05-18T04:46:09.294Z,95261.33
2018-05-18T04:48:37.539Z,95266.97
2018-05-18T04:51:05.907Z,95266.98
2018-05-18T04:53:34.059Z,95262.61
2018-05-18T04:56:02.323Z,95268.28
2018-05-18T04:58:30.599Z,95264.33
2018-05-18T05:00:58.875Z,95265.73
2018-05-18T05:03:27.127Z,95266.98
2018-05-18T05:05:55.404Z,95258.44
2018-05-18T05:08:23.659Z,95259.80
2018-05-18T05:10:51.934Z,95262.56
2018-05-18T05:13:20.185Z,95271.77
2018-05-18T05:15:48.474Z,95270.66
2018-05-18T05:18:16.730Z,95265.16
2018-05-18T05:20:44.998Z,95260.31
2018-05-18T05:23:14.024Z,95260.36
2018-05-18T05:25:42.297Z,95262.62
2018-05-18T05:28:10.551Z,95266.12
2018-05-18T05:30:38.815Z,95268.18
2018-05-18T05:33:07.098Z,95269.05
2018-05-18T05:35:35.367Z,95265.09
2018-05-18T05:38:03.627Z,95268.23
2018-05-18T05:40:31.890Z,95261.81
2018-05-18T05:43:00.204Z,95260.87
2018-05-18T05:45:28.469Z,95255.44
2018-05-18T05:47:56.763Z,95263.45
2018-05-18T05:50:25.027Z,95261.66
2018-05-18T05:52:53.301Z,95260.72
2018-05-18T05:55:21.551Z,95258.96
2018-05-18T05:57:49.823Z,95264.48
2018-05-18T06:00:18.088Z,95264.96
2018-05-18T06:02:46.359Z,95272.91
2018-05-18T06:05:14.702Z,95273.47
2018-05-18T06:07:42.892Z,95271.13
2018-05-18T06:10:11.147Z,95275.10
2018-05-18T06:12:39.403Z,95275.48
2018-05-18T06:15:07.671Z,95272.57
2018-05-18T06:17:35.967Z,95275.84
2018-05-18T06:20:04.223Z,95270.28
2018-05-18T06:22:32.490Z,95268.05
2018-05-18T06:25:00.801Z,95266.52
2018-05-18T06:27:29.066Z,95265.98
2018-05-18T06:29:57.331Z,95265.39
2018-05-18T06:32:25.610Z,95270.91
2018-05-18T06:34:54.622Z,95274.39
2018-05-18T06:37:22.829Z,95277.03
2018-05-18T06:39:51.077Z,95273.02
2018-05-18T06:42:19.372Z,95280.88
2018-05-18T06:44:47.615Z,95276.91
2018-05-18T06:47:15.883Z,95275.61
2018-05-18T06:49:44.139Z,95273.72
2018-05-18T06:52:12.407Z,95268.27
2018-05-18T06:54:40.678Z,95273.09
2018-05-18T06:57:08.948Z,95272.44
2018-05-18T06:59:37.215Z,95265.53
2018-05-18T07:02:05.480Z,95271.80
2018-05-18T07:04:33.734Z,95275.23
2018-05-18T07:07:02.004Z,95277.97
2018-05-18T07:09:30.279Z,95284.41
2018-05-18T07:11:58.546Z,95284.48
2018-05-18T07:14:26.812Z,95278.55
2018-05-18T07:16:55.079Z,95271.73
2018-05-18T07:19:23.337Z,95270.77
2018-05-18T07:21:51.659Z,95274.41
2018-05-18T07:24:19.929Z,95280.22
2018-05-18T07:26:48.207Z,95284.12
2018-05-18T07:29:16.462Z,95290.23
2018-05-18T07:31:44.724Z,95283.87
2018-05-18T07:34:13.038Z,95287.03
2018-05-18T07:36:41.293Z,95280.96
2018-05-18T07:39:09.563Z,95281.05
2018-05-18T07:41:37.827Z,95279.34
2018-05-18T07:44:06.088Z,95288.61
2018-05-18T07:46:35.063Z,95281.88
2018-05-18T07:49:03.326Z,95281.38
2018-05-18T07:51:31.587Z,95278.97
2018-05-18T07:53:59.854Z,95280.97
2018-05-18T07:56:28.111Z,95282.14
2018-05-18T07:58:56.375Z,95285.84
2018-05-18T08:01:24.635Z,95283.81
2018-05-18T08:03:52.890Z,95280.50
2018-05-18T08:06:21.180Z,95283.39
2018-05-18T08:08:49.454Z,95285.69
2018-05-18T08:11:17.715Z,95280.09
2018-05-18T08:13:45.996Z,95273.00
2018-05-18T08:16:14.274Z,95272.72
2018-05-18T08:18:42.550Z,95276.68
2018-05-18T08:21:11.522Z,95268.66
2018-05-18T08:23:41.543Z,95271.00
2018-05-18T08:26:10.703Z,95264.94
2018-05-18T08:28:58.667Z,95266.47
2018-05-18T08:31:26.930Z,95264.28
2018-05-18T08:33:55.199Z,95267.14
2018-05-18T08:36:23.459Z,95260.95
2018-05-18T08:38:51.735Z,95258.07
2018-05-18T08:41:19.987Z,95257.52
2018-05-18T08:43:48.254Z,95263.44
2018-05-18T08:46:16.517Z,95266.66
2018-05-18T08:48:44.774Z,95267.37
2018-05-18T08:51:13.026Z,95262.67
2018-05-18T08:53:41.294Z,95264.74
2018-05-18T08:56:09.551Z,95260.23
2018-05-18T08:58:37.822Z,95262.33
2018-05-18T09:01:06.078Z,95268.11
2018-05-18T09:03:34.355Z,95278.08
2018-05-18T09:06:02.718Z,95269.56
2018-05-18T09:08:30.984Z,95269.43
2018-05-18T09:10:59.247Z,95267.55
2018-05-18T09:13:27.512Z,95268.14
2018-05-18T09:15:56.371Z,95270.79
2018-05-18T09:18:24.639Z,95270.09
2018-05-18T09:20:52.900Z,95268.38
2018-05-18T09:23:21.175Z,95262.92
2018-05-18T09:25:49.444Z,95269.19
2018-05-18T09:28:17.694Z,95267.70
2018-05-18T09:30:45.962Z,95268.70
2018-05-18T09:33:14.215Z,95262.74
2018-05-18T09:35:42.548Z,95264.56
2018-05-18T09:38:11.126Z,95264.28
2018-05-18T09:40:39.389Z,95265.72
2018-05-18T09:43:07.637Z,95257.98
2018-05-18T09:45:35.915Z,95255.15
2018-05-18T09:48:04.183Z,95253.88
2018-05-18T09:50:32.505Z,95252.16
2018-05-18T09:53:00.760Z,95257.27
2018-05-18T09:55:29.193Z,95255.47
2018-05-18T09:57:58.151Z,95252.19
2018-05-18T10:00:26.418Z,95252.31
2018-05-18T10:02:54.683Z,95243.28
2018-05-18T10:05:22.950Z,95236.52
2018-05-18T10:07:51.213Z,95244.88
2018-05-18T10:10:19.486Z,95243.89
2018-05-18T10:12:47.743Z,95241.26
2018-05-18T10:15:16.003Z,95237.19
2018-05-18T10:17:44.254Z,95239.98
2018-05-18T10:20:12.528Z,95240.13
2018-05-18T10:22:40.795Z,95239.31
2018-05-18T10:25:09.058Z,95230.01
2018-05-18T10:27:37.319Z,95237.98
2018-05-18T10:30:05.587Z,95232.67
2018-05-18T10:32:33.848Z,95228.94
2018-05-18T10:35:02.115Z,95226.62
2018-05-18T10:37:30.380Z,95232.52
2018-05-18T10:39:58.638Z,95233.41
2018-05-18T10:42:26.891Z,95232.75
2018-05-18T10:44:55.161Z,95228.49
2018-05-18T10:47:23.406Z,95225.41
2018-05-18T10:49:51.688Z,95231.78
2018-05-18T10:52:19.954Z,95229.81
2018-05-18T10:54:48.225Z,95222.37
2018-05-18T10:57:16.487Z,95220.19
2018-05-18T10:59:44.754Z,95223.09
2018-05-18T11:02:13.015Z,95224.29
2018-05-18T11:04:41.321Z,95217.78
2018-05-18T11:07:09.583Z,95220.82
2018-05-18T11:09:37.843Z,95214.27
2018-05-18T11:12:06.107Z,95210.64
2018-05-18T11:14:34.373Z,95213.20
2018-05-18T11:17:02.640Z,95215.69
2018-05-18T11:19:30.907Z,95201.63
2018-05-18T11:21:59.179Z,95201.34
2018-05-18T11:24:27.443Z,95197.16
2018-05-18T11:26:55.703Z,95193.23
2018-05-18T11:29:24.467Z,95197.94
2018-05-18T11:31:52.748Z,95189.94
2018-05-18T11:34:21.000Z,95180.40
2018-05-18T11:36:49.259Z,95189.95
2018-05-18T11:39:17.604Z,95190.45
2018-05-18T11:41:45.879Z,95185.05
2018-05-18T11:44:14.209Z,95178.66
2018-05-18T11:46:42.398Z,95174.03
2018-05-18T11:49:10.648Z,95172.98
2018-05-18T11:51:38.926Z,95170.38
2018-05-18T11:54:07.184Z,95168.21
2018-05-18T11:56:35.459Z,95168.23
2018-05-18T11:59:03.717Z,95168.48
2018-05-18T12:01:31.984Z,95165.76
2018-05-18T12:04:00.235Z,95163.85
2018-05-18T12:06:28.503Z,95165.27
2018-05-18T12:08:56.764Z,95158.36
2018-05-18T12:11:25.027Z,95154.00
2018-05-18T12:13:53.283Z,95152.89
2018-05-18T12:16:21.543Z,95156.44
2018-05-18T12:18:49.809Z,95153.11
2018-05-18T12:21:18.071Z,95154.03
2018-05-18T12:23:46.326Z,95153.77
2018-05-18T12:26:14.629Z,95151.52
2018-05-18T12:28:42.852Z,95153.50
2018-05-18T12:31:11.118Z,95156.34
2018-05-18T12:33:39.378Z,95144.17
2018-05-18T12:36:07.646Z,95145.12
2018-05-18T12:38:35.903Z,95144.90
2018-05-18T12:41:04.889Z,95156.89
2018-05-18T12:43:33.149Z,95144.30
2018-05-18T12:46:01.420Z,95141.95
2018-05-18T12:48:29.743Z,95144.72
2018-05-18T12:50:58.025Z,95131.03
2018-05-18T12:53:26.282Z,95129.83
2018-05-18T12:55:54.531Z,95127.89
2018-05-18T12:58:22.797Z,95124.33
2018-05-18T13:00:51.047Z,95120.66
2018-05-18T13:03:19.335Z,95124.48
2018-05-18T13:05:47.592Z,95125.89
2018-05-18T13:08:16.001Z,95117.70
2018-05-18T13:10:44.200Z,95106.06
2018-05-18T13:13:12.476Z,95109.80
2018-05-18T13:15:40.726Z,95100.02
2018-05-18T13:18:08.986Z,95103.80
2018-05-18T13:20:37.240Z,95102.23
2018-05-18T13:23:05.516Z,95101.00
2018-05-18T13:25:33.762Z,95100.39
2018-05-18T13:28:02.319Z,95099.26
2018-05-18T13:30:30.573Z,95105.34
2018-05-18T13:32:58.828Z,95094.15
2018-05-18T13:35:27.091Z,95091.73
2018-05-18T13:37:55.352Z,95091.23
2018-05-18T13:40:23.601Z,95092.14
2018-05-18T13:42:51.874Z,95089.94
2018-05-18T13:45:20.126Z,95079.13
2018-05-18T13:47:48.476Z,95083.84
2018-05-18T13:50:16.729Z,95079.45
2018-05-18T13:52:44.983Z,95082.47
2018-05-18T13:55:13.247Z,95073.52
2018-05-18T13:57:41.516Z,95075.50
2018-05-18T14:00:09.762Z,95074.17
2018-05-18T14:02:38.029Z,95071.11
2018-05-18T14:05:06.280Z,95069.73
2018-05-18T14:07:34.546Z,95068.06
2018-05-18T14:10:02.850Z,95071.81
2018-05-18T14:12:31.123Z,95073.70
2018-05-18T14:14:59.374Z,95074.63
2018-05-18T14:17:27.650Z,95066.34
2018-05-18T14:19:55.898Z,95071.76
2018-05-18T14:22:24.183Z,95066.95
2018-05-18T14:24:52.453Z,95055.91
2018-05-18T14:27:20.699Z,95053.81
2018-05-18T14:29:48.964Z,95060.48
2018-05-18T14:32:17.239Z,95060.50
2018-05-18T14:34:45.513Z,95063.84
2018-05-18T14:37:13.758Z,95070.77
2018-05-18T14:39:42.028Z,95062.80
2018-05-18T14:42:10.287Z,95060.55
2018-05-18T14:44:38.551Z,95060.86
2018-05-18T14:47:06.816Z,95054.67
2018-05-18T14:49:35.075Z,95051.75
2018-05-18T14:52:03.345Z,95045.66
2018-05-18T14:54:31.619Z,95051.66
2018-05-18T14:56:59.871Z,95045.39
2018-05-18T14:59:28.138Z,95049.38
2018-05-18T15:01:56.394Z,95051.91
2018-05-18T15:04:24.662Z,95048.63
2018-05-18T15:06:52.910Z,95046.27
2018-05-18T15:09:21.171Z,95047.34
2018-05-18T15:11:49.431Z,95050.26
2018-05-18T15:14:18.406Z,95049.81
2018-05-18T15:16:46.660Z,95046.73
2018-05-18T15:19:14.919Z,95052.63
2018-05-18T15:21:43.187Z,95054.37
2018-05-18T15:24:11.446Z,95052.45
2018-05-18T15:26:39.729Z,95054.98
2018-05-18T15:29:08.005Z,95043.96
2018-05-18T15:31:36.299Z,95048.38
2018-05-18T15:34:04.555Z,95047.80
2018-05-18T15:36:32.802Z,95051.80
2018-05-18T15:39:01.075Z,95061.61
2018-05-18T15:41:29.331Z,95056.36
2018-05-18T15:43:57.663Z,95057.01
2018-05-18T15:46:25.950Z,95055.47
2018-05-18T15:48:54.227Z,95057.22
2018-05-18T15:51:22.488Z,95063.16
2018-05-18T15:53:50.752Z,95073.27
2018-05-18T15:56:19.015Z,95070.16
2018-05-18T15:58:47.287Z,95066.53
2018-05-18T16:01:15.538Z,95065.69
2018-05-18T16:03:43.804Z,95067.18
2018-05-18T16:06:12.066Z,95072.19
2018-05-18T16:08:40.342Z,95070.79
2018-05-18T16:11:08.591Z,95066.33
2018-05-18T16:13:36.832Z,95073.42
2018-05-18T16:16:05.107Z,95076.48
2018-05-18T16:18:33.366Z,95077.06
2018-05-18T16:21:01.724Z,95078.48
2018-05-18T16:23:29.951Z,95072.77
2018-05-18T16:25:58.852Z,95066.06
2018-05-18T16:28:27.871Z,95073.43
2018-05-18T16:30:56.140Z,95076.12
2018-05-18T16:33:24.440Z,95084.46
2018-05-18T16:35:52.642Z,95082.70
2018-05-18T16:38:20.918Z,95085.45
2018-05-18T16:40:49.171Z,95083.97
2018-05-18T16:43:17.423Z,95080.11
2018-05-18T16:45:45.689Z,95083.72
2018-05-18T16:48:13.934Z,95079.58
2018-05-18T16:50:42.207Z,95075.30
2018-05-18T16:53:10.518Z,95075.05
2018-05-18T16:55:38.779Z,95078.58
2018-05-18T16:58:07.036Z,95076.11
2018-05-18T17:00:35.290Z,95079.92
2018-05-18T17:03:04.666Z,95076.75
2018-05-18T17:05:32.943Z,95083.78
2018-05-18T17:08:01.198Z,95084.13
2018-05-18T17:10:29.450Z,95085.48
2018-05-18T17:12:57.708Z,95088.63
2018-05-18T17:15:25.970Z,95086.64
2018-05-18T17:17:55.464Z,95085.73
2018-05-18T17:20:23.739Z,95090.95
2018-05-18T17:22:51.986Z,95092.51
2018-05-18T17:25:20.242Z,95087.78
2018-05-18T17:27:48.504Z,95081.59
2018-05-18T17:30:17.522Z,95089.22
2018-05-18T17:32:45.771Z,95092.19
2018-05-18T17:35:14.039Z,95093.09
2018-05-18T17:37:42.283Z,95099.13
2018-05-18T17:40:10.546Z,95092.55
2018-05-18T17:42:38.825Z,95088.59
2018-05-18T17:45:07.056Z,95098.87
2018-05-18T17:47:35.306Z,95096.73
2018-05-18T17:50:03.558Z,95094.30
2018-05-18T17:52:31.810Z,95093.98
2018-05-18T17:55:00.059Z,95090.13
2018-05-18T17:57:28.327Z,95088.89
2018-05-18T17:59:56.580Z,95086.56
2018-05-18T18:02:24.844Z,95086.45
2018-05-18T18:04:53.098Z,95081.88
2018-05-18T18:07:21.353Z,95081.36
2018-05-18T18:09:49.618Z,95085.91
2018-05-18T18:12:17.888Z,95085.21
2018-05-18T18:14:46.155Z,95088.55
2018-05-18T18:17:14.418Z,95088.44
2018-05-18T18:19:43.610Z,95087.19
2018-05-18T18:22:11.862Z,95084.52
2018-05-18T18:24:40.119Z,95089.51
2018-05-18T18:27:08.379Z,95100.08
2018-05-18T18:29:36.623Z,95108.21
2018-05-18T18:32:04.883Z,95116.37
2018-05-18T18:34:33.142Z,95120.95
2018-05-18T18:37:01.500Z,95122.98
2018-05-18T18:39:29.760Z,95120.17
2018-05-18T18:41:58.049Z,95120.27
2018-05-18T18:44:26.315Z,95133.08
2018-05-18T18:46:54.571Z,95125.47
2018-05-18T18:49:22.818Z,95132.33
2018-05-18T18:51:51.082Z,95125.28
2018-05-18T18:54:19.331Z,95140.69
2018-05-18T18:56:47.590Z,95138.01
2018-05-18T18:59:15.840Z,95137.72
2018-05-18T19:01:44.160Z,95139.31
2018-05-18T19:04:12.402Z,95140.98
2018-05-18T19:06:40.674Z,95142.80
2018-05-18T19:09:08.922Z,95142.62
2018-05-18T19:11:37.184Z,95147.43
2018-05-18T19:14:05.436Z,95153.31
2018-05-18T19:16:33.695Z,95150.93
2018-05-18T19:19:01.955Z,95148.70
2018-05-18T19:21:30.667Z,95155.44
2018-05-18T19:23:58.914Z,95159.36
2018-05-18T19:26:27.178Z,95159.31
2018-05-18T19:28:55.435Z,95161.95
2018-05-18T19:31:23.703Z,95164.29
2018-05-18T19:33:51.953Z,95165.75
2018-05-18T19:36:20.210Z,95166.78
2018-05-18T19:38:48.476Z,95168.09
2018-05-18T19:41:16.726Z,95166.30
2018-05-18T19:43:45.000Z,95170.84
2018-05-18T19:46:13.252Z,95171.66
2018-05-18T19:48:41.506Z,95170.45
2018-05-18T19:51:09.795Z,95176.57
2018-05-18T19:53:38.059Z,95174.97
2018-05-18T19:56:06.315Z,95184.33
2018-05-18T19:58:34.571Z,95184.08
2018-05-18T20:01:02.827Z,95189.70
2018-05-18T20:03:31.107Z,95190.27
2018-05-18T20:05:59.342Z,95194.69
2018-05-18T20:08:27.599Z,95200.44
2018-05-18T20:10:55.846Z,95199.52
2018-05-18T20:13:24.110Z,95197.98
2018-05-18T20:15:52.355Z,95190.38
2018-05-18T20:18:20.622Z,95198.22
2018-05-18T20:20:48.869Z,95197.26
2018-05-18T20:23:17.894Z,95192.25
2018-05-18T20:25:46.148Z,95196.69
2018-05-18T20:28:14.418Z,95205.92
2018-05-18T20:30:42.723Z,95200.48
2018-05-18T20:33:10.995Z,95210.94
2018-05-18T20:35:39.260Z,95212.41
2018-05-18T20:38:07.541Z,95205.50
2018-05-18T20:40:36.540Z,95209.11
2018-05-18T20:43:04.803Z,95208.55
2018-05-18T20:45:33.055Z,95213.05
2018-05-18T20:48:01.315Z,95211.96
2018-05-18T20:50:29.579Z,95204.28
2018-05-18T20:52:57.838Z,95209.73
2018-05-18T20:55:26.094Z,95206.69
2018-05-18T20:57:54.362Z,95212.66
2018-05-18T21:00:22.680Z,95206.70
2018-05-18T21:02:50.945Z,95213.50
2018-05-18T21:05:19.196Z,95220.64
2018-05-18T21:07:47.459Z,95221.05
2018-05-18T21:10:15.711Z,95223.94
2018-05-18T21:12:43.971Z,95223.06
2018-05-18T21:15:12.233Z,95223.72
2018-05-18T21:17:40.495Z,95222.34
2018-05-18T21:20:08.750Z,95223.29
2018-05-18T21:22:37.048Z,95225.48
2018-05-18T21:25:05.954Z,95228.80
2018-05-18T21:27:34.196Z,95231.67
2018-05-18T21:30:02.466Z,95231.58
2018-05-18T21:32:30.731Z,95225.38
2018-05-18T21:34:59.005Z,95229.58
2018-05-18T21:37:27.254Z,95225.82
2018-05-18T21:39:55.516Z,95226.39
2018-05-18T21:42:23.772Z,95232.44
2018-05-18T21:44:52.031Z,95235.59
2018-05-18T21:47:20.288Z,95238.89
2018-05-18T21:49:48.583Z,95229.44
2018-05-18T21:52:16.843Z,95232.78
2018-05-18T21:54:45.116Z,95232.25
2018-05-18T21:57:13.366Z,95234.72
2018-05-18T21:59:41.631Z,95234.56
2018-05-18T22:02:09.879Z,95230.64
2018-05-18T22:04:38.144Z,95225.98
2018-05-18T22:07:06.398Z,95233.46
2018-05-18T22:09:34.669Z,95228.74
2018-05-18T22:12:02.922Z,95224.97
2018-05-18T22:17:29.500Z,95227.81
2018-05-18T22:19:57.746Z,95228.97
2018-05-18T22:22:25.991Z,95228.63
2018-05-18T22:24:54.239Z,95240.52
2018-05-18T22:27:22.487Z,95242.97
2018-05-18T22:29:50.749Z,95237.89
2018-05-18T22:32:18.990Z,95234.84
2018-05-18T22:34:47.350Z,95240.17
2018-05-18T22:37:15.598Z,95231.00
2018-05-18T22:39:43.859Z,95237.81
2018-05-18T22:42:12.104Z,95228.38
2018-05-18T22:44:40.362Z,95229.19
2018-05-18T22:47:08.607Z,95225.52
2018-05-18T22:49:36.890Z,95222.65
2018-05-18T22:52:05.134Z,95219.54
2018-05-18T22:54:33.390Z,95223.94
2018-05-18T22:57:01.658Z,95224.33
2018-05-18T22:59:29.898Z,95228.81
2018-05-18T23:01:58.146Z,95227.30
2018-05-18T23:04:26.406Z,95234.03
2018-05-18T23:06:54.666Z,95221.54
2018-05-18T23:09:23.014Z,95220.95
2018-05-18T23:11:51.167Z,95218.57
2018-05-18T23:14:19.442Z,95227.57
2018-05-18T23:16:47.710Z,95224.59
2018-05-18T23:19:15.963Z,95220.84
2018-05-18T23:21:44.204Z,95226.37
2018-05-18T23:24:12.456Z,95223.01
2018-05-18T23:26:40.732Z,95216.34
2018-05-18T23:29:08.998Z,95210.04
2018-05-18T23:31:37.295Z,95210.62
2018-05-18T23:34:05.603Z,95213.33
2018-05-18T23:36:33.863Z,95208.41
2018-05-18T23:39:03.012Z,95205.96
2018-05-18T23:41:32.031Z,95199.47
2018-05-18T23:44:00.271Z,95193.63
2018-05-18T23:46:29.287Z,95197.23
2018-05-18T23:48:57.553Z,95194.21
2018-05-18T23:51:25.790Z,95196.10
2018-05-18T23:53:54.052Z,95181.05
2018-05-18T23:56:22.303Z,95189.07
2018-05-18T23:58:50.555Z,95182.26
